METAR Data
IDs: Format: Raw Decoded Include TAF

Data at: 1242 UTC 07 Jul 2020

KSGU 071156Z AUTO 00000KT 10SM CLR 24/M12 A2989 RMK AO2 SLP077 T02391117 10311 20233 53009
KSGU 071056Z AUTO 17008KT 10SM CLR 24/M13 A2988 RMK AO2 SLP074 T02391128
KSGU 070956Z AUTO 12010KT 10SM CLR 25/M13 A2987 RMK AO2 SLP069 T02501128
KSGU 070856Z AUTO 12011KT 10SM CLR 26/M13 A2986 RMK AO2 SLP066 T02611128 52000
KSGU 070756Z AUTO 12009KT 10SM CLR 27/M13 A2986 RMK AO2 SLP065 T02721133
KSGU 070656Z AUTO 11008KT 10SM CLR 27/M13 A2986 RMK AO2 SLP068 T02721133 404060222
KSGU 070556Z AUTO 12006KT 10SM CLR 31/M14 A2986 RMK AO2 SLP066 T03061144 10406 20289 51014
KSGU 070456Z AUTO 17009KT 10SM CLR 32/M15 A2985 RMK AO2 SLP063 T03221150
KSGU 070356Z AUTO 19009KT 10SM CLR 33/M14 A2983 RMK AO2 SLP058 T03331139
KSGU 070256Z AUTO 22014KT 10SM CLR 36/M13 A2982 RMK AO2 SLP052 T03611133 53001
KSGU 070156Z AUTO 22016G22KT 10SM CLR 38/M10 A2981 RMK AO2 SLP049 T03831100
KSGU 070056Z AUTO 23013KT 10SM CLR 39/M11 A2980 RMK AO2 SLP047 T03941111
KSGU 062356Z AUTO 22017KT 10SM CLR 41/M11 A2981 RMK AO2 SLP050 T04061111 10406 20339 56018
KSGU 062256Z AUTO 23019KT 10SM CLR 40/M06 A2983 RMK AO2 SLP056 T04001061
KSGU 062156Z AUTO 26011G16KT 10SM CLR 39/M04 A2985 RMK AO2 SLP064 T03941039
KSGU 062056Z AUTO 23011G23KT 10SM CLR 39/M06 A2987 RMK AO2 WSHFT 2002 SLP068 T03941056 58022
KSGU 062022Z AUTO 22015G22KT 10SM CLR 39/M06 A2988 RMK AO2 WSHFT 2002
KSGU 061956Z AUTO 27007KT 230V300 10SM CLR 38/M02 A2990 RMK AO2 SLP080 T03781022
KSGU 061856Z AUTO 31005KT 10SM CLR 36/M01 A2993 RMK AO2 SLP089 T03611006
KSGU 061756Z AUTO VRB03KT 10SM CLR 34/01 A2994 RMK AO2 SLP095 T03390011 10339 20222 58006
KSGU 061656Z AUTO 32003KT 10SM CLR 31/00 A2995 RMK AO2 SLP100 T03110000
KSGU 061556Z AUTO 25003KT 10SM CLR 29/M01 A2996 RMK AO2 SLP101 T02891011
KSGU 061456Z AUTO 22003KT 10SM CLR 26/M01 A2996 RMK AO2 SLP102 T02611011 51013
KSGU 061356Z AUTO 17003KT 10SM CLR 24/M02 A2995 RMK AO2 SLP099 T02391017
KSGU 061256Z AUTO 00000KT 10SM CLR 23/M02 A2994 RMK AO2 SLP094 T02281022
KSGU 061156Z AUTO 09003KT 10SM CLR 24/M03 A2992 RMK AO2 SLP087 T02391033 10294 20228 53010
KSGU 061056Z AUTO 14004KT 10SM CLR 23/M03 A2990 RMK AO2 SLP083 T02331033
KSGU 060956Z AUTO 16004KT 10SM CLR 24/M03 A2990 RMK AO2 SLP080 T02391033
KSGU 060856Z AUTO 09004KT 10SM CLR 27/M01 A2989 RMK AO2 SLP075 T02721011 50004
KSGU 060756Z AUTO 12007KT 10SM CLR 26/M03 A2989 RMK AO2 SLP077 T02611028
KSGU 060656Z AUTO 14006KT 10SM CLR 28/M03 A2988 RMK AO2 SLP074 T02781033 403940217
KSGU 060556Z AUTO 14005KT 10SM CLR 29/M04 A2987 RMK AO2 SLP072 T02891039 10394 20283 51009
KSGU 060456Z AUTO 13005KT 10SM CLR 30/M04 A2987 RMK AO2 SLP072 T03001039
KSGU 060356Z AUTO 23006KT 10SM CLR 34/M03 A2986 RMK AO2 SLP066 T03391028
KSGU 060256Z AUTO 27008KT 10SM CLR 37/M02 A2984 RMK AO2 SLP062 T03671022 55001
KSGU 060156Z AUTO 28011KT 10SM CLR 38/M02 A2984 RMK AO2 SLP062 T03831017
KSGU 060056Z AUTO 26014KT 10SM CLR 39/M01 A2983 RMK AO2 SLP058 T03891006